La Crosse, Washington
Current Conditions -  °F | °C
As of 7:53 AM on Friday 24 Oct 2014 (Local Time) from KPUW Reporting Station
Overcast Overcast  
Wind Chill: 40°   Ceiling: 10000
Heat Index: 45°   Visibility: 10mi
Dew Point: 41°   Wind: 10mph
Humidity: 86%   Direction: 100°E
Pressure: 30.1"   Gusts: NA
Location:  46.81°N, 117.88°W
Report Text: KPUW 241453Z AUTO 10009KT 10SM OVC100 07/05 A3010 RMK AO2 SLP198 T00720050 53006
Loading
Personal Weather Stations






























Interactive Weather Map
Tropical Storm Tracking
New forecast layout! Learn more

10-Day Weather Forecast

Advertisements
Track Severe Weather on mobile